Time;durP1;ratioP1;P1;durP2;ratioP2;P2;SDS_P1;SDS_P2;PMS_P1;PMS_P2;Temp;Humidity;BMP_temperature;BMP_pressure;BME280_temperature;BME280_humidity;BME280_pressure;Samples;Min_cycle;Max_cycle;Signal;HPM_P1;HPM_P2
2021/01/31 00:00:20;;;;;;;21.73;13.70;;;-0.60;94.20;;;;;;5119324;27;20139;-39
2021/01/31 00:02:46;;;;;;;22.17;13.70;;;-0.60;94.30;;;;;;5108612;27;20024;-37
2021/01/31 00:05:12;;;;;;;23.03;14.47;;;-0.60;94.20;;;;;;5119428;27;20031;-40
2021/01/31 00:07:40;;;;;;;21.90;13.77;;;-0.70;94.20;;;;;;5106124;28;20479;-40
2021/01/31 00:10:07;;;;;;;20.97;13.77;;;-0.70;94.30;;;;;;5120204;27;20026;-40
2021/01/31 00:12:33;;;;;;;22.40;13.20;;;-0.70;94.30;;;;;;5107740;28;20031;-39
2021/01/31 00:14:59;;;;;;;19.37;12.50;;;-0.70;94.30;;;;;;5119492;27;20039;-40
2021/01/31 00:17:25;;;;;;;17.63;11.83;;;-0.70;94.30;;;;;;5107154;28;20046;-39
2021/01/31 00:19:50;;;;;;;17.50;12.23;;;-0.80;94.30;;;;;;5117536;27;20035;-40
2021/01/31 00:22:16;;;;;;;20.20;13.00;;;-0.80;94.30;;;;;;5109579;27;20459;-39
2021/01/31 00:24:41;;;;;;;22.33;13.60;;;-0.90;94.30;;;;;;5114707;27;20426;-38
2021/01/31 00:27:07;;;;;;;23.70;14.43;;;-0.90;94.40;;;;;;5112353;27;20308;-38
2021/01/31 00:29:32;;;;;;;23.87;14.90;;;-0.90;94.50;;;;;;5112549;27;20023;-38
2021/01/31 00:31:58;;;;;;;23.17;14.57;;;-0.90;94.60;;;;;;5115289;27;20400;-39
2021/01/31 00:34:24;;;;;;;23.27;14.93;;;-0.90;94.60;;;;;;5110199;27;20024;-39
2021/01/31 00:36:50;;;;;;;23.77;15.90;;;-1.00;94.60;;;;;;5116415;27;20530;-39
2021/01/31 00:39:16;;;;;;;24.27;15.17;;;-1.00;94.60;;;;;;5107912;27;20482;-40
2021/01/31 00:41:44;;;;;;;26.60;14.83;;;-1.00;94.70;;;;;;5117672;27;20148;-37
2021/01/31 00:44:10;;;;;;;22.67;14.73;;;-1.00;94.70;;;;;;5105755;27;20124;-40
2021/01/31 00:46:39;;;;;;;24.80;15.37;;;-1.00;94.70;;;;;;5118352;27;20090;-39
2021/01/31 00:49:06;;;;;;;21.20;14.20;;;-1.00;94.80;;;;;;5105803;28;20069;-40
2021/01/31 00:51:31;;;;;;;21.83;13.10;;;-1.00;94.80;;;;;;5119350;27;20054;-41
2021/01/31 00:54:03;;;;;;;24.40;15.10;;;-1.10;94.70;;;;;;5105971;28;20061;-39
2021/01/31 00:56:29;;;;;;;23.45;14.75;;;-1.10;94.80;;;;;;5118552;27;20027;-39
2021/01/31 00:58:54;;;;;;;21.63;14.00;;;-1.10;94.90;;;;;;5106491;28;20027;-40
2021/01/31 01:01:20;;;;;;;24.00;14.70;;;-1.10;94.80;;;;;;5118685;27;20046;-40
2021/01/31 01:03:46;;;;;;;25.07;15.47;;;-1.10;95.20;;;;;;5106230;27;20619;-40
2021/01/31 01:06:12;;;;;;;22.40;14.53;;;-1.20;95.00;;;;;;5115619;27;20063;-39
2021/01/31 01:08:37;;;;;;;22.90;14.40;;;-1.20;94.90;;;;;;5109931;27;20031;-40
2021/01/31 01:11:04;;;;;;;20.33;13.23;;;-1.20;94.90;;;;;;5111414;27;20331;-39
2021/01/31 01:13:30;;;;;;;23.77;14.63;;;-1.20;94.90;;;;;;5112442;27;20506;-39
2021/01/31 01:15:56;;;;;;;20.17;13.00;;;-1.20;94.90;;;;;;5109506;27;20039;-40
2021/01/31 01:18:22;;;;;;;26.40;15.20;;;-1.20;94.90;;;;;;5114680;27;20039;-40
2021/01/31 01:20:48;;;;;;;25.07;15.77;;;-1.20;94.90;;;;;;5107650;27;20012;-39
2021/01/31 01:23:13;;;;;;;28.47;15.87;;;-1.20;94.90;;;;;;5117916;27;20050;-41
2021/01/31 01:25:39;;;;;;;29.57;17.57;;;-1.20;95.00;;;;;;5106413;27;20050;-40
2021/01/31 01:28:05;;;;;;;26.97;17.07;;;-1.20;95.00;;;;;;5117909;27;20128;-39
2021/01/31 01:30:32;;;;;;;29.90;17.90;;;-1.20;95.00;;;;;;5105378;28;20439;-39
2021/01/31 01:33:01;;;;;;;29.27;18.47;;;-1.20;95.10;;;;;;5118118;27;20250;-40
2021/01/31 01:35:28;;;;;;;29.20;18.07;;;-1.20;95.40;;;;;;5106052;28;20201;-40
2021/01/31 01:37:54;;;;;;;27.73;17.20;;;-1.20;95.20;;;;;;5117928;27;20319;-40
2021/01/31 01:40:30;;;;;;;33.33;20.03;;;-1.20;95.20;;;;;;5106200;28;20034;-40
2021/01/31 01:42:55;;;;;;;26.70;17.57;;;-1.20;95.20;;;;;;5118274;27;20133;-39
2021/01/31 01:45:22;;;;;;;31.67;19.23;;;-1.20;95.30;;;;;;5106098;28;20110;-39
2021/01/31 01:47:50;;;;;;;29.03;18.57;;;-1.20;95.30;;;;;;5115477;27;20123;-39
2021/01/31 01:50:29;;;;;;;30.90;19.03;;;-1.30;95.30;;;;;;5107154;28;20062;-41
2021/01/31 01:52:58;;;;;;;31.47;18.83;;;-1.30;95.30;;;;;;5115511;27;20036;-39
2021/01/31 01:55:26;;;;;;;29.80;17.90;;;-1.30;95.40;;;;;;5107511;28;20100;-38
2021/01/31 01:57:58;;;;;;;36.00;20.20;;;-1.30;95.50;;;;;;5113100;28;20015;-39
2021/01/31 02:00:24;;;;;;;34.72;19.10;;;-1.30;95.50;;;;;;5110767;28;20567;-39
2021/01/31 02:03:01;;;;;;;30.30;18.33;;;-1.30;95.50;;;;;;5118726;27;20070;-39
2021/01/31 02:05:27;;;;;;;30.77;18.23;;;-1.30;95.50;;;;;;5116347;27;20020;-38
2021/01/31 02:07:53;;;;;;;28.17;18.23;;;-1.30;95.50;;;;;;5116830;27;20023;-38
2021/01/31 02:10:23;;;;;;;29.83;17.73;;;-1.40;95.50;;;;;;5118818;27;20114;-39
2021/01/31 02:12:51;;;;;;;30.47;18.80;;;-1.40;95.50;;;;;;5114192;27;20043;-38
2021/01/31 02:15:19;;;;;;;29.67;18.50;;;-1.40;95.50;;;;;;5121208;27;20496;-39
2021/01/31 02:18:13;;;;;;;31.10;19.07;;;-1.40;95.50;;;;;;5113303;27;21045;-40
2021/01/31 02:20:54;;;;;;;31.57;18.87;;;-1.40;95.50;;;;;;5118176;27;20118;-39
2021/01/31 02:23:57;;;;;;;28.20;17.73;;;-1.50;95.50;;;;;;5116779;27;20026;-39
2021/01/31 02:26:56;;;;;;;27.95;18.02;;;-1.50;95.60;;;;;;5115080;27;20038;-39
2021/01/31 02:29:40;;;;;;;30.23;18.93;;;-1.50;95.60;;;;;;5124790;27;20022;-40
2021/01/31 02:32:37;;;;;;;28.50;17.83;;;-1.60;95.60;;;;;;5112162;28;20028;-40
2021/01/31 02:35:09;;;;;;;29.33;17.23;;;-1.60;95.70;;;;;;5124138;27;20065;-36
2021/01/31 02:37:45;;;;;;;29.17;18.00;;;-1.60;95.70;;;;;;5111944;28;20231;-39
2021/01/31 02:40:23;;;;;;;32.80;18.47;;;-1.60;95.70;;;;;;5119529;27;20114;-37
2021/01/31 02:42:56;;;;;;;30.67;19.00;;;-1.70;95.70;;;;;;5131184;27;20038;-42
2021/01/31 02:45:30;;;;;;;29.43;18.00;;;-1.70;95.80;;;;;;5119291;27;20653;-38
2021/01/31 02:48:03;;;;;;;25.77;16.47;;;-1.70;95.80;;;;;;5131671;27;20039;-39
2021/01/31 02:50:34;;;;;;;28.70;18.03;;;-1.70;95.80;;;;;;5118516;27;20063;-38
2021/01/31 02:53:22;;;;;;;31.33;17.77;;;-1.70;95.80;;;;;;5132216;27;20510;-38
2021/01/31 02:55:58;;;;;;;31.83;18.77;;;-1.80;95.80;;;;;;5117444;27;20438;-38
2021/01/31 02:58:28;;;;;;;29.73;17.33;;;-1.80;95.80;;;;;;5132124;27;20090;-40
2021/01/31 03:01:00;;;;;;;29.50;17.93;;;-1.80;95.90;;;;;;5119059;27;20027;-38
2021/01/31 03:03:32;;;;;;;31.43;18.93;;;-1.80;95.90;;;;;;5131227;27;20145;-38
2021/01/31 03:06:02;;;;;;;33.47;19.35;;;-1.80;96.00;;;;;;5117934;27;20092;-39
2021/01/31 03:08:36;;;;;;;29.80;18.23;;;-1.80;96.00;;;;;;5132452;27;20038;-40
2021/01/31 03:11:07;;;;;;;29.97;18.67;;;-1.80;96.30;;;;;;5118465;27;20016;-40
2021/01/31 03:13:47;;;;;;;26.67;17.60;;;-1.80;96.00;;;;;;5127448;27;20047;-39
2021/01/31 03:16:17;;;;;;;28.73;17.20;;;-1.80;96.00;;;;;;5115394;27;20471;-41
2021/01/31 03:18:51;;;;;;;30.20;17.10;;;-1.80;96.00;;;;;;5128126;27;20026;-40
2021/01/31 03:21:22;;;;;;;25.03;15.07;;;-1.80;96.00;;;;;;5115259;27;20377;-38
2021/01/31 03:23:55;;;;;;;28.57;17.90;;;-1.80;96.10;;;;;;5128533;27;20035;-40
2021/01/31 03:26:26;;;;;;;33.40;19.43;;;-1.80;96.00;;;;;;5115992;27;20028;-39
2021/01/31 03:28:58;;;;;;;28.63;16.90;;;-1.70;95.90;;;;;;5128405;27;20041;-39
2021/01/31 03:31:27;;;;;;;24.70;15.33;;;-1.70;95.90;;;;;;5115524;27;20102;-38
2021/01/31 03:34:00;;;;;;;23.30;14.40;;;-1.80;95.80;;;;;;5127922;27;20034;-40
2021/01/31 03:36:27;;;;;;;24.90;15.83;;;-1.80;95.80;;;;;;5117695;27;20050;-37
2021/01/31 03:38:54;;;;;;;28.17;16.33;;;-1.90;95.80;;;;;;5126085;27;20066;-39
2021/01/31 03:41:24;;;;;;;25.37;15.97;;;-1.90;95.90;;;;;;5120188;27;20026;-39
2021/01/31 03:43:50;;;;;;;31.87;18.33;;;-2.00;95.90;;;;;;5123730;27;20031;-40
2021/01/31 03:46:42;;;;;;;34.70;20.17;;;-2.00;96.00;;;;;;5121161;27;20531;-39
2021/01/31 03:49:45;;;;;;;30.73;18.43;;;-2.00;96.00;;;;;;5125821;27;20035;-39
2021/01/31 03:52:11;;;;;;;28.90;17.02;;;-2.00;96.10;;;;;;5114820;27;20101;-40
2021/01/31 03:54:36;;;;;;;27.03;16.23;;;-2.10;96.00;;;;;;5127859;27;20030;-39
2021/01/31 03:57:10;;;;;;;26.77;16.77;;;-2.10;96.10;;;;;;5117632;27;20059;-39
2021/01/31 03:59:48;;;;;;;27.50;16.70;;;-2.10;96.10;;;;;;5125931;27;20031;-39
2021/01/31 04:02:15;;;;;;;24.63;16.30;;;-2.10;96.20;;;;;;5117276;27;20019;-39
2021/01/31 04:04:45;;;;;;;23.33;14.07;;;-2.10;96.10;;;;;;5124548;27;20070;-39
2021/01/31 04:07:16;;;;;;;28.30;16.17;;;-2.10;96.10;;;;;;5119077;27;20016;-39
2021/01/31 04:09:43;;;;;;;24.00;15.20;;;-2.10;96.20;;;;;;5123297;27;20064;-38
2021/01/31 04:12:11;;;;;;;27.30;16.57;;;-2.20;96.20;;;;;;5120460;27;20155;-38
2021/01/31 04:14:39;;;;;;;23.60;14.80;;;-2.20;96.20;;;;;;5121278;27;20111;-37
2021/01/31 04:17:05;;;;;;;28.57;17.00;;;-2.20;96.30;;;;;;5122441;27;20092;-39
2021/01/31 04:19:30;;;;;;;28.87;17.30;;;-2.20;96.30;;;;;;5118077;27;20152;-40
2021/01/31 04:21:56;;;;;;;27.50;15.97;;;-2.20;96.30;;;;;;5125481;27;20327;-40
2021/01/31 04:24:22;;;;;;;30.40;17.77;;;-2.20;96.20;;;;;;5115614;27;20126;-40
2021/01/31 04:26:47;;;;;;;26.47;16.80;;;-2.20;96.30;;;;;;5125552;27;20505;-39
2021/01/31 04:29:13;;;;;;;31.20;18.10;;;-2.20;96.30;;;;;;5116494;27;20389;-39
2021/01/31 04:31:41;;;;;;;27.97;16.57;;;-2.20;96.30;;;;;;5126161;27;20617;-40
2021/01/31 04:34:06;;;;;;;35.37;19.27;;;-2.20;96.30;;;;;;5114405;27;20011;-40
2021/01/31 04:36:32;;;;;;;28.80;16.90;;;-2.20;96.40;;;;;;5127539;27;20339;-41
2021/01/31 04:38:58;;;;;;;26.20;15.90;;;-2.20;96.40;;;;;;5114198;27;20039;-36
2021/01/31 04:41:31;;;;;;;25.03;14.80;;;-2.20;96.40;;;;;;5126810;27;20434;-36
2021/01/31 04:43:56;;;;;;;;;;;-2.20;96.40;;;;;;5114105;27;20530;-39
2021/01/31 04:46:30;;;;;;;29.13;16.60;;;-2.20;96.40;;;;;;5127752;27;19985;-40
2021/01/31 04:49:05;;;;;;;30.43;17.50;;;-2.30;96.30;;;;;;5115235;27;20035;-39
2021/01/31 04:51:40;;;;;;;28.07;16.90;;;-2.30;96.40;;;;;;5106303;28;20475;-39
2021/01/31 04:54:15;;;;;;;29.20;17.87;;;-2.30;96.40;;;;;;5118120;27;20386;-40
2021/01/31 04:57:08;;;;;;;26.37;15.57;;;-2.30;96.50;;;;;;5105849;28;20024;-39
2021/01/31 04:59:38;;;;;;;25.33;14.97;;;-2.30;96.50;;;;;;5118683;27;20043;-39
2021/01/31 05:02:16;;;;;;;27.63;15.97;;;-2.30;96.40;;;;;;5105683;28;20328;-40
2021/01/31 05:04:54;;;;;;;28.73;16.37;;;-2.30;96.50;;;;;;5118212;27;20023;-40
2021/01/31 05:07:26;;;;;;;28.13;16.37;;;-2.30;96.50;;;;;;5106158;28;20072;-39
2021/01/31 05:09:52;;;;;;;26.02;15.18;;;-2.30;96.50;;;;;;5118699;27;20191;-36
2021/01/31 05:12:36;;;;;;;26.33;15.70;;;-2.40;96.50;;;;;;5106178;28;20055;-39
2021/01/31 05:15:28;;;;;;;26.40;15.53;;;-2.30;96.60;;;;;;5118026;27;20055;-39
2021/01/31 05:17:58;;;;;;;28.07;16.43;;;-2.30;96.60;;;;;;5105290;28;20165;-39
2021/01/31 05:20:30;;;;;;;30.40;17.80;;;-2.30;96.60;;;;;;5118725;27;20039;-39
2021/01/31 05:22:58;;;;;;;28.58;16.83;;;-2.30;96.70;;;;;;5105358;28;20058;-40
2021/01/31 05:25:29;;;;;;;26.60;16.00;;;-2.30;96.70;;;;;;5118474;27;20067;-41
2021/01/31 05:27:59;;;;;;;28.73;16.33;;;-2.20;96.80;;;;;;5105389;28;20036;-40
2021/01/31 05:30:27;;;;;;;29.00;16.53;;;-2.30;96.70;;;;;;5117757;27;20130;-39
2021/01/31 05:33:10;;;;;;;25.90;16.53;;;-2.20;96.80;;;;;;5105293;28;20028;-39
2021/01/31 05:36:11;;;;;;;32.45;19.65;;;-2.20;96.70;;;;;;5117044;27;20381;-36
2021/01/31 05:38:42;;;;;;;28.43;17.47;;;-2.20;96.70;;;;;;5091079;28;20080;-40
2021/01/31 05:41:33;;;;;;;28.27;16.63;;;-2.20;96.70;;;;;;5118661;27;20031;-39
2021/01/31 05:44:21;;;;;;;28.20;17.03;;;-2.20;96.70;;;;;;5104845;28;20101;-40
2021/01/31 05:46:57;;;;;;;27.23;17.50;;;-2.20;96.60;;;;;;5116772;27;20115;-40
2021/01/31 05:49:50;;;;;;;29.87;17.20;;;-2.30;96.70;;;;;;5106722;28;20027;-41
2021/01/31 05:52:21;;;;;;;25.77;15.90;;;-2.20;96.70;;;;;;5111209;27;20486;-40
2021/01/31 05:54:49;;;;;;;27.10;16.97;;;-2.20;96.70;;;;;;5123723;27;20047;-38
2021/01/31 05:57:35;;;;;;;29.53;17.03;;;-2.20;96.70;;;;;;5114165;28;20054;-38
2021/01/31 06:00:14;;;;;;;28.63;16.40;;;-2.20;96.70;;;;;;5124115;28;20061;-39
2021/01/31 06:02:40;;;;;;;29.57;18.13;;;-2.20;96.70;;;;;;5114336;28;20138;-38
2021/01/31 06:05:20;;;;;;;29.53;17.87;;;-2.20;96.70;;;;;;5123402;28;20494;-38
2021/01/31 06:08:01;;;;;;;27.70;16.20;;;-2.20;96.70;;;;;;5113984;28;20022;-40
2021/01/31 06:10:28;;;;;;;31.20;18.10;;;-2.30;96.70;;;;;;5123954;28;20023;-39
2021/01/31 06:13:07;;;;;;;31.00;17.87;;;-2.20;96.70;;;;;;5113201;28;20027;-39
2021/01/31 06:15:37;;;;;;;29.87;18.27;;;-2.20;96.70;;;;;;5123063;28;20154;-39
2021/01/31 06:18:10;;;;;;;33.17;18.77;;;-2.20;96.70;;;;;;5113866;28;20027;-39
2021/01/31 06:20:39;;;;;;;30.63;17.77;;;-2.20;96.70;;;;;;5123348;28;20130;-39
2021/01/31 06:23:05;;;;;;;28.87;16.77;;;-2.20;96.70;;;;;;5113445;28;20027;-39
2021/01/31 06:25:39;;;;;;;31.07;17.73;;;-2.30;96.60;;;;;;5123652;28;20534;-38
2021/01/31 06:28:14;;;;;;;29.83;17.50;;;-2.30;96.60;;;;;;5116030;28;20470;-39
2021/01/31 06:30:49;;;;;;;29.30;17.83;;;-2.30;96.60;;;;;;5105212;28;20023;-39
2021/01/31 06:33:15;;;;;;;24.23;14.93;;;-2.30;96.60;;;;;;5116805;28;20320;-39
2021/01/31 06:35:40;;;;;;;31.70;18.77;;;-2.30;96.60;;;;;;5104586;28;20039;-40
2021/01/31 06:38:25;;;;;;;34.03;19.50;;;-2.30;96.60;;;;;;5117559;28;20470;-38
2021/01/31 06:40:50;;;;;;;27.67;16.30;;;-2.40;96.70;;;;;;5104821;28;20030;-39
2021/01/31 06:43:34;;;;;;;29.70;17.13;;;-2.40;96.70;;;;;;5118159;28;20371;-38
2021/01/31 06:46:19;;;;;;;30.93;17.27;;;-2.40;96.70;;;;;;5104776;28;20035;-38
2021/01/31 06:49:02;;;;;;;31.40;17.00;;;-2.40;96.60;;;;;;5119083;27;20487;-40
2021/01/31 06:52:09;;;;;;;28.33;17.33;;;-2.40;96.70;;;;;;5110355;27;20769;-39
2021/01/31 06:55:04;;;;;;;27.93;16.37;;;-2.40;96.70;;;;;;5119354;27;20100;-41
2021/01/31 06:57:56;;;;;;;31.40;17.87;;;-2.40;96.70;;;;;;5123976;27;20016;-40
2021/01/31 07:00:49;;;;;;;28.93;17.80;;;-2.40;96.70;;;;;;5125844;27;20046;-40
2021/01/31 07:03:33;;;;;;;30.00;17.30;;;-2.50;96.70;;;;;;5119469;27;20019;-38
2021/01/31 07:06:06;;;;;;;30.97;17.57;;;-2.50;96.70;;;;;;5128972;27;20085;-37
2021/01/31 07:08:32;;;;;;;;;;;-2.50;96.70;;;;;;5118346;27;20028;-39
2021/01/31 07:11:12;;;;;;;30.20;17.30;;;-2.50;96.80;;;;;;5127513;27;19907;-40
2021/01/31 07:14:05;;;;;;;33.70;19.00;;;-2.50;96.80;;;;;;5118525;27;20421;-41
2021/01/31 07:16:51;;;;;;;28.50;17.13;;;-2.50;96.80;;;;;;5108192;28;20028;-40
2021/01/31 07:19:22;;;;;;;27.03;15.97;;;-2.50;96.80;;;;;;5121353;27;20043;-39
2021/01/31 07:21:47;;;;;;;31.77;17.43;;;-2.50;96.80;;;;;;5108454;28;20038;-39
2021/01/31 07:24:37;;;;;;;36.20;17.80;;;-2.50;96.80;;;;;;5120420;27;20035;-39
2021/01/31 07:27:31;;;;;;;31.67;18.07;;;-2.50;96.80;;;;;;5109115;28;20030;-38
2021/01/31 07:30:19;;;;;;;33.03;18.23;;;-2.50;96.80;;;;;;5116124;27;20039;-39
2021/01/31 07:33:12;;;;;;;33.03;18.37;;;-2.50;96.80;;;;;;5128176;27;20019;-40
2021/01/31 07:35:52;;;;;;;30.58;17.95;;;-2.50;96.80;;;;;;5119955;27;20477;-39
2021/01/31 07:38:25;;;;;;;32.43;18.67;;;-2.50;96.80;;;;;;5109993;27;20537;-38
2021/01/31 07:40:55;;;;;;;33.72;19.15;;;-2.50;96.80;;;;;;5120583;27;20067;-38
2021/01/31 07:43:24;;;;;;;29.47;17.40;;;-2.50;96.80;;;;;;5110069;27;20035;-39
2021/01/31 07:45:56;;;;;;;36.27;19.40;;;-2.50;96.90;;;;;;5119269;27;20090;-41
2021/01/31 07:48:36;;;;;;;35.63;20.70;;;-2.50;96.90;;;;;;5110400;27;20613;-39
2021/01/31 07:51:04;;;;;;;33.20;19.03;;;-2.50;96.90;;;;;;5119456;27;20072;-40
2021/01/31 07:53:39;;;;;;;35.27;19.90;;;-2.50;96.90;;;;;;5109032;27;20086;-39
2021/01/31 07:56:26;;;;;;;32.47;18.30;;;-2.50;96.90;;;;;;5120855;27;20073;-39
2021/01/31 07:58:59;;;;;;;33.53;19.57;;;-2.40;96.90;;;;;;5109688;27;20030;-40
2021/01/31 08:01:40;;;;;;;35.67;19.93;;;-2.40;96.80;;;;;;5120197;27;20031;-40
2021/01/31 08:04:19;;;;;;;33.77;19.57;;;-2.40;96.80;;;;;;5109893;27;20165;-40
2021/01/31 08:06:51;;;;;;;33.40;18.70;;;-2.40;96.80;;;;;;5118013;27;20071;-39
2021/01/31 08:09:26;;;;;;;32.65;17.83;;;-2.40;96.80;;;;;;5128186;27;20019;-40
2021/01/31 08:11:57;;;;;;;35.37;19.60;;;-2.30;96.80;;;;;;5123379;27;20083;-39
2021/01/31 08:15:01;;;;;;;30.90;18.40;;;-2.30;96.80;;;;;;5124271;27;20051;-38
2021/01/31 08:17:45;;;;;;;;;;;-2.30;96.70;;;;;;5119556;27;20148;-40
2021/01/31 08:20:20;;;;;;;33.20;19.07;;;-2.20;96.70;;;;;;5122677;27;20293;-44
2021/01/31 08:22:45;;;;;;;32.67;18.97;;;-2.20;96.70;;;;;;5113520;27;20024;-41
2021/01/31 08:25:11;;;;;;;33.50;19.40;;;-2.20;96.70;;;;;;5111237;27;20346;-41
2021/01/31 08:27:42;;;;;;;30.93;18.53;;;-2.10;96.70;;;;;;5113163;27;20031;-39
2021/01/31 08:30:14;;;;;;;29.60;16.93;;;-2.10;96.70;;;;;;5110956;27;20686;-40
2021/01/31 08:32:58;;;;;;;33.50;19.33;;;-2.10;96.60;;;;;;5116615;27;20205;-39
2021/01/31 08:35:26;;;;;;;29.20;17.60;;;-2.00;96.60;;;;;;5126456;27;20576;-40
2021/01/31 08:38:14;;;;;;;29.80;18.13;;;-2.00;96.50;;;;;;5116641;27;20023;-39
2021/01/31 08:40:40;;;;;;;28.60;16.87;;;-2.00;96.50;;;;;;5107144;27;20106;-39
2021/01/31 08:43:10;;;;;;;29.30;17.53;;;-1.90;96.40;;;;;;5118182;27;20055;-39
2021/01/31 08:45:46;;;;;;;34.47;18.83;;;-1.90;96.40;;;;;;5125951;27;20092;-41
2021/01/31 08:48:24;;;;;;;32.90;19.53;;;-1.80;96.40;;;;;;5116085;27;20023;-39
2021/01/31 08:51:05;;;;;;;31.97;19.37;;;-1.80;96.40;;;;;;5125709;27;20480;-40
2021/01/31 08:53:33;;;;;;;30.00;18.77;;;-1.70;96.30;;;;;;5117117;27;20023;-39
2021/01/31 08:56:18;;;;;;;27.00;17.20;;;-1.60;96.20;;;;;;5125739;27;20127;-38
2021/01/31 08:58:43;;;;;;;27.93;16.37;;;-1.60;96.10;;;;;;5126283;27;20122;-37
2021/01/31 09:01:09;;;;;;;30.30;19.03;;;-1.60;96.10;;;;;;5125237;27;20168;-39
2021/01/31 09:03:34;;;;;;;34.03;21.23;;;-1.50;96.00;;;;;;5117110;27;20035;-39
2021/01/31 09:06:03;;;;;;;29.30;18.27;;;-1.50;96.00;;;;;;5106905;27;20032;-40
2021/01/31 09:08:29;;;;;;;35.23;19.33;;;-1.40;95.70;;;;;;5117390;27;20037;-37
2021/01/31 09:10:55;;;;;;;32.13;18.60;;;-1.30;95.60;;;;;;5121630;27;20087;-40
2021/01/31 09:13:28;;;;;;;29.53;18.27;;;-1.30;95.50;;;;;;5124621;27;20023;-41
2021/01/31 09:16:08;;;;;;;27.47;16.70;;;-1.20;95.40;;;;;;5125981;27;20043;-38
2021/01/31 09:18:36;;;;;;;26.40;16.67;;;-1.20;95.30;;;;;;5113733;27;20121;-41
2021/01/31 09:21:26;;;;;;;29.90;18.50;;;-1.20;95.30;;;;;;5124448;27;20030;-41
2021/01/31 09:23:57;;;;;;;28.47;17.37;;;-1.10;95.30;;;;;;5115195;27;20041;-38
2021/01/31 09:26:23;;;;;;;31.60;19.77;;;-1.10;95.30;;;;;;5127613;27;20162;-38
2021/01/31 09:28:50;;;;;;;31.80;18.80;;;-1.10;95.20;;;;;;5113700;27;20146;-38
2021/01/31 09:31:16;;;;;;;34.13;20.37;;;-1.10;94.90;;;;;;5126950;27;20091;-40
2021/01/31 09:33:43;;;;;;;28.63;17.03;;;-1.10;94.80;;;;;;5112007;27;20094;-39
2021/01/31 09:36:18;;;;;;;33.00;19.77;;;-1.10;94.80;;;;;;5125914;27;20041;-39
2021/01/31 09:38:48;;;;;;;33.13;19.73;;;-1.10;95.10;;;;;;5112328;27;20400;-39
2021/01/31 09:41:20;;;;;;;31.30;18.73;;;-1.10;94.90;;;;;;5105796;28;20012;-40
2021/01/31 09:43:50;;;;;;;27.30;17.30;;;-1.10;95.00;;;;;;5116039;27;20099;-40
2021/01/31 09:46:17;;;;;;;30.60;17.87;;;-1.10;95.00;;;;;;5106648;27;20049;-41
2021/01/31 09:48:44;;;;;;;31.37;17.73;;;-1.10;95.10;;;;;;5114412;27;20110;-40
2021/01/31 09:51:22;;;;;;;31.50;18.70;;;-1.10;95.10;;;;;;5108765;27;20019;-39
2021/01/31 09:53:48;;;;;;;33.77;19.73;;;-1.10;95.10;;;;;;5123150;27;20019;-39
2021/01/31 09:56:36;;;;;;;31.80;19.33;;;-1.00;95.10;;;;;;5126370;27;20030;-39
2021/01/31 09:59:01;;;;;;;34.37;20.47;;;-1.00;95.00;;;;;;5114718;27;20152;-41
2021/01/31 10:01:29;;;;;;;32.97;20.03;;;-1.00;94.90;;;;;;5123599;28;20492;-40
2021/01/31 10:04:04;;;;;;;35.87;20.50;;;-1.00;94.90;;;;;;5124689;28;20015;-40
2021/01/31 10:06:43;;;;;;;30.57;19.10;;;-1.00;94.70;;;;;;5110910;28;20066;-40
2021/01/31 10:09:09;;;;;;;31.07;18.47;;;-0.90;94.70;;;;;;5112151;28;20050;-36
2021/01/31 10:11:47;;;;;;;28.13;17.33;;;-0.90;94.80;;;;;;5109587;28;20554;-38
2021/01/31 10:14:45;;;;;;;33.47;20.27;;;-0.90;94.80;;;;;;5112046;28;20089;-38
2021/01/31 10:17:17;;;;;;;33.73;19.43;;;-0.90;94.70;;;;;;5108081;28;20019;-40
2021/01/31 10:19:44;;;;;;;;;;;-0.90;94.70;;;;;;5114677;28;20031;-39
2021/01/31 10:22:32;;;;;;;33.53;19.60;;;-0.90;94.70;;;;;;5111958;28;20664;-39
2021/01/31 10:24:58;;;;;;;32.87;19.97;;;-0.90;94.70;;;;;;5118744;27;20120;-40
2021/01/31 10:27:30;;;;;;;31.33;18.53;;;-0.90;94.70;;;;;;5113072;27;20522;-40
2021/01/31 10:30:16;;;;;;;34.90;20.30;;;-0.80;94.80;;;;;;5117096;27;20031;-40
2021/01/31 10:32:42;;;;;;;32.40;19.30;;;-0.80;94.80;;;;;;5111313;27;20047;-40
2021/01/31 10:35:30;;;;;;;34.00;19.37;;;-0.80;94.60;;;;;;5118537;27;20372;-42
2021/01/31 10:37:57;;;;;;;30.73;18.33;;;-0.70;94.60;;;;;;5111300;27;20024;-41
2021/01/31 10:40:23;;;;;;;28.83;18.03;;;-0.70;94.50;;;;;;5118559;27;20090;-40
2021/01/31 10:42:48;;;;;;;28.90;17.47;;;-0.70;94.60;;;;;;5112711;27;20114;-40
2021/01/31 10:45:23;;;;;;;29.40;17.33;;;-0.70;94.50;;;;;;5116075;27;20091;-40
2021/01/31 10:47:49;;;;;;;24.27;15.10;;;-0.60;94.90;;;;;;5114499;27;20036;-38
2021/01/31 10:50:17;;;;;;;28.27;17.10;;;-0.60;94.60;;;;;;5114796;27;20111;-41
2021/01/31 10:52:42;;;;;;;27.80;16.30;;;-0.60;94.60;;;;;;5116473;27;20024;-40
2021/01/31 10:55:12;;;;;;;28.83;17.73;;;-0.50;94.60;;;;;;5112005;27;20497;-40
2021/01/31 10:57:38;;;;;;;31.13;19.43;;;-0.50;94.60;;;;;;5118610;27;20028;-40
2021/01/31 11:00:06;;;;;;;31.77;19.57;;;-0.40;94.60;;;;;;5110521;27;20112;-41
2021/01/31 11:02:31;;;;;;;33.97;20.13;;;-0.40;94.50;;;;;;5121401;27;20038;-41
2021/01/31 11:05:00;;;;;;;32.57;20.03;;;-0.40;94.40;;;;;;5110435;27;20027;-37
2021/01/31 11:07:25;;;;;;;31.87;19.23;;;-0.40;94.30;;;;;;5120521;27;20111;-40
2021/01/31 11:09:51;;;;;;;32.23;19.03;;;-0.30;94.30;;;;;;5109395;28;20111;-39
2021/01/31 11:12:19;;;;;;;32.70;20.73;;;-0.30;94.30;;;;;;5121814;27;20007;-40
2021/01/31 11:14:45;;;;;;;30.83;19.13;;;-0.20;94.20;;;;;;5108479;28;20057;-41
2021/01/31 11:17:10;;;;;;;33.17;19.27;;;-0.20;94.20;;;;;;5122218;27;20620;-40
2021/01/31 11:19:36;;;;;;;30.97;18.80;;;-0.10;94.20;;;;;;5108975;28;20073;-38
2021/01/31 11:22:01;;;;;;;31.03;19.20;;;-0.10;94.00;;;;;;5119376;27;20030;-40
2021/01/31 11:24:27;;;;;;;28.90;18.57;;;0.00;93.80;;;;;;5127523;27;20685;-39
2021/01/31 11:26:52;;;;;;;26.93;16.87;;;0.00;93.80;;;;;;5126700;27;20029;-37
2021/01/31 11:29:18;;;;;;;31.10;18.10;;;0.10;93.80;;;;;;5128244;27;20030;-39
2021/01/31 11:31:43;;;;;;;31.00;20.30;;;0.20;93.90;;;;;;5127912;27;20447;-40
2021/01/31 11:34:09;;;;;;;34.57;21.23;;;0.20;93.70;;;;;;5127828;27;20015;-40
2021/01/31 11:36:34;;;;;;;31.90;18.40;;;0.30;93.40;;;;;;5126694;27;20068;-40
2021/01/31 11:39:07;;;;;;;32.20;19.40;;;0.30;93.30;;;;;;5128576;27;20035;-40
2021/01/31 11:41:37;;;;;;;31.47;19.07;;;0.40;93.30;;;;;;5125046;27;20038;-39
2021/01/31 11:44:07;;;;;;;33.73;18.93;;;0.40;93.30;;;;;;5128720;27;20055;-39
2021/01/31 11:46:34;;;;;;;31.50;19.60;;;0.40;93.20;;;;;;5123687;27;20039;-39
2021/01/31 11:49:00;;;;;;;30.53;18.83;;;0.50;93.10;;;;;;5126180;27;20027;-38
2021/01/31 11:51:26;;;;;;;32.20;19.67;;;0.40;93.00;;;;;;5124009;27;20235;-39
2021/01/31 11:53:51;;;;;;;33.15;18.77;;;0.50;92.90;;;;;;5118126;27;20436;-39
2021/01/31 11:56:17;;;;;;;27.50;17.17;;;0.50;92.90;;;;;;5106390;28;20019;-40
2021/01/31 11:58:42;;;;;;;26.23;17.40;;;0.50;92.90;;;;;;5119184;27;20058;-40
2021/01/31 12:01:12;;;;;;;26.63;16.70;;;0.60;92.80;;;;;;5107726;28;20617;-39
2021/01/31 12:03:38;;;;;;;27.95;17.83;;;0.60;92.70;;;;;;5119765;27;20101;-40
2021/01/31 12:06:03;;;;;;;24.08;15.63;;;0.70;92.80;;;;;;5123385;27;20035;-38
2021/01/31 12:08:29;;;;;;;30.48;17.85;;;0.70;92.70;;;;;;5127657;27;20023;-40
2021/01/31 12:10:54;;;;;;;28.33;17.42;;;0.70;92.70;;;;;;5127900;27;20026;-39
2021/01/31 12:13:20;;;;;;;28.67;17.90;;;0.80;92.80;;;;;;5124160;27;20019;-40
2021/01/31 12:15:46;;;;;;;28.85;18.05;;;0.80;92.60;;;;;;5112503;27;20129;-41
2021/01/31 12:18:11;;;;;;;28.30;17.10;;;0.80;92.60;;;;;;5112476;27;20201;-38
2021/01/31 12:20:37;;;;;;;27.97;16.97;;;0.90;92.50;;;;;;5115114;27;20059;-39
2021/01/31 12:23:02;;;;;;;26.10;16.70;;;0.90;92.50;;;;;;5110237;27;20979;-39
2021/01/31 12:25:28;;;;;;;24.55;16.25;;;0.90;92.50;;;;;;5117584;27;20030;-40
2021/01/31 12:27:54;;;;;;;25.75;16.83;;;1.00;92.50;;;;;;5109007;27;20034;-40
2021/01/31 12:30:31;;;;;;;23.77;15.95;;;1.00;92.50;;;;;;5119618;27;20028;-40
2021/01/31 12:32:58;;;;;;;24.52;15.88;;;1.00;92.60;;;;;;5108217;27;20542;-39
2021/01/31 12:35:25;;;;;;;26.67;16.05;;;1.00;92.70;;;;;;5120345;27;20023;-40
2021/01/31 12:37:50;;;;;;;24.95;15.80;;;1.10;92.80;;;;;;5127120;27;20019;-40
2021/01/31 12:40:18;;;;;;;24.58;15.85;;;1.20;92.80;;;;;;5125994;27;20039;-40
2021/01/31 12:42:44;;;;;;;26.70;17.02;;;1.20;92.80;;;;;;5127361;27;20137;-40
2021/01/31 12:45:10;;;;;;;24.58;16.73;;;1.30;92.60;;;;;;5125728;27;20064;-40
2021/01/31 12:47:36;;;;;;;26.83;16.63;;;1.30;92.50;;;;;;5126782;27;20015;-40
2021/01/31 12:50:03;;;;;;;23.92;14.93;;;1.40;92.40;;;;;;5125960;27;20500;-39
2021/01/31 12:52:29;;;;;;;22.02;14.10;;;1.40;92.40;;;;;;5127142;27;20555;-37
2021/01/31 12:54:54;;;;;;;20.48;13.93;;;1.50;92.40;;;;;;5126155;27;20023;-40